sensor_id;sensor_type;location;lat;lon;timestamp;noise_LAeq;noise_LA_min;noise_LA_max;noise_LA01;noise_LA95
37163;Laerm;23057;48.554;14.454;2022-09-09T00:02:15;44.88;39.08;57.90;;
37163;Laerm;23057;48.554;14.454;2022-09-09T00:07:53;41.81;38.21;43.86;;
37163;Laerm;23057;48.554;14.454;2022-09-09T00:10:40;41.35;37.32;43.63;;
37163;Laerm;23057;48.554;14.454;2022-09-09T00:13:37;47.13;38.67;64.59;;
37163;Laerm;23057;48.554;14.454;2022-09-09T00:16:22;42.38;38.37;44.56;;
37163;Laerm;23057;48.554;14.454;2022-09-09T00:22:04;49.23;38.67;63.62;;
37163;Laerm;23057;48.554;14.454;2022-09-09T00:24:45;45.26;38.67;62.22;;
37163;Laerm;23057;48.554;14.454;2022-09-09T00:30:34;42.37;39.08;44.73;;
37163;Laerm;23057;48.554;14.454;2022-09-09T00:33:12;48.81;39.70;64.75;;
37163;Laerm;23057;48.554;14.454;2022-09-09T00:35:58;42.18;39.08;44.65;;
37163;Laerm;23057;48.554;14.454;2022-09-09T00:38:45;46.75;39.21;61.56;;
37163;Laerm;23057;48.554;14.454;2022-09-09T00:44:30;42.40;39.70;45.57;;
37163;Laerm;23057;48.554;14.454;2022-09-09T00:47:30;42.37;38.67;48.52;;
37163;Laerm;23057;48.554;14.454;2022-09-09T00:53:05;46.98;39.81;62.46;;
37163;Laerm;23057;48.554;14.454;2022-09-09T00:58:36;44.92;40.33;57.42;;
37163;Laerm;23057;48.554;14.454;2022-09-09T01:01:12;42.48;39.46;44.07;;
37163;Laerm;23057;48.554;14.454;2022-09-09T01:03:56;42.38;39.08;46.50;;
37163;Laerm;23057;48.554;14.454;2022-09-09T01:06:33;42.49;39.34;44.73;;
37163;Laerm;23057;48.554;14.454;2022-09-09T01:09:14;48.47;40.13;65.36;;
37163;Laerm;23057;48.554;14.454;2022-09-09T01:12:16;46.64;39.58;66.65;;
37163;Laerm;23057;48.554;14.454;2022-09-09T01:14:52;42.83;39.46;61.96;;
37163;Laerm;23057;48.554;14.454;2022-09-09T01:17:33;43.38;39.92;49.92;;
37163;Laerm;23057;48.554;14.454;2022-09-09T01:26:18;49.58;39.57;63.41;;
37163;Laerm;23057;48.554;14.454;2022-09-09T01:28:51;43.17;40.23;58.68;;
37163;Laerm;23057;48.554;14.454;2022-09-09T01:31:32;49.27;40.13;65.57;;
37163;Laerm;23057;48.554;14.454;2022-09-09T01:34:14;42.77;40.33;47.16;;
37163;Laerm;23057;48.554;14.454;2022-09-09T01:37:02;43.36;40.03;50.17;;
37163;Laerm;23057;48.554;14.454;2022-09-09T01:39:37;52.02;40.45;64.28;;
37163;Laerm;23057;48.554;14.454;2022-09-09T01:42:13;42.76;39.58;44.54;;
37163;Laerm;23057;48.554;14.454;2022-09-09T01:44:45;49.80;40.71;62.69;;
37163;Laerm;23057;48.554;14.454;2022-09-09T01:47:16;47.50;39.46;65.05;;
37163;Laerm;23057;48.554;14.454;2022-09-09T01:49:48;50.58;40.23;66.31;;
37163;Laerm;23057;48.554;14.454;2022-09-09T01:52:18;52.10;40.13;68.09;;
37163;Laerm;23057;48.554;14.454;2022-09-09T01:54:49;45.37;39.81;58.78;;
37163;Laerm;23057;48.554;14.454;2022-09-09T01:57:31;49.63;40.27;64.31;;
37163;Laerm;23057;48.554;14.454;2022-09-09T02:00:10;42.83;39.92;45.97;;
37163;Laerm;23057;48.554;14.454;2022-09-09T02:05:42;50.66;40.23;64.94;;
37163;Laerm;23057;48.554;14.454;2022-09-09T02:08:53;45.65;39.58;62.78;;
37163;Laerm;23057;48.554;14.454;2022-09-09T02:11:29;42.52;38.81;44.97;;
37163;Laerm;23057;48.554;14.454;2022-09-09T02:14:07;43.81;39.81;52.41;;
37163;Laerm;23057;48.554;14.454;2022-09-09T02:16:47;54.25;41.06;67.38;;
37163;Laerm;23057;48.554;14.454;2022-09-09T02:19:27;54.49;40.13;66.97;;
37163;Laerm;23057;48.554;14.454;2022-09-09T02:22:02;52.70;40.13;65.93;;
37163;Laerm;23057;48.554;14.454;2022-09-09T02:24:36;51.51;40.23;64.33;;
37163;Laerm;23057;48.554;14.454;2022-09-09T02:27:09;52.30;41.46;64.75;;
37163;Laerm;23057;48.554;14.454;2022-09-09T02:29:42;44.41;40.13;57.56;;
37163;Laerm;23057;48.554;14.454;2022-09-09T02:32:20;57.68;42.41;73.59;;
37163;Laerm;23057;48.554;14.454;2022-09-09T02:35:02;52.85;41.22;65.95;;
37163;Laerm;23057;48.554;14.454;2022-09-09T02:37:39;53.44;39.92;68.97;;
37163;Laerm;23057;48.554;14.454;2022-09-09T02:40:13;50.67;40.71;65.97;;
37163;Laerm;23057;48.554;14.454;2022-09-09T02:42:48;52.19;41.53;66.03;;
37163;Laerm;23057;48.554;14.454;2022-09-09T02:45:25;45.81;39.81;64.20;;
37163;Laerm;23057;48.554;14.454;2022-09-09T02:48:04;49.62;38.81;62.91;;
37163;Laerm;23057;48.554;14.454;2022-09-09T02:51:13;52.10;39.58;66.16;;
37163;Laerm;23057;48.554;14.454;2022-09-09T02:56:54;50.09;39.81;66.63;;
37163;Laerm;23057;48.554;14.454;2022-09-09T02:59:27;51.67;39.70;66.97;;
37163;Laerm;23057;48.554;14.454;2022-09-09T03:01:57;46.38;40.89;64.49;;
37163;Laerm;23057;48.554;14.454;2022-09-09T03:04:29;49.09;40.62;65.17;;
37163;Laerm;23057;48.554;14.454;2022-09-09T03:07:01;48.97;40.71;65.25;;
37163;Laerm;23057;48.554;14.454;2022-09-09T03:09:34;45.76;39.81;62.74;;
37163;Laerm;23057;48.554;14.454;2022-09-09T03:12:05;56.31;41.82;71.26;;
37163;Laerm;23057;48.554;14.454;2022-09-09T03:14:35;51.47;40.80;67.32;;
37163;Laerm;23057;48.554;14.454;2022-09-09T03:17:06;56.34;41.30;69.64;;
37163;Laerm;23057;48.554;14.454;2022-09-09T03:19:37;55.65;42.41;67.13;;
37163;Laerm;23057;48.554;14.454;2022-09-09T03:22:10;54.83;41.14;70.11;;
37163;Laerm;23057;48.554;14.454;2022-09-09T03:24:41;49.89;42.09;66.09;;
37163;Laerm;23057;48.554;14.454;2022-09-09T03:27:13;54.52;41.06;68.09;;
37163;Laerm;23057;48.554;14.454;2022-09-09T03:29:46;42.94;40.23;50.75;;
37163;Laerm;23057;48.554;14.454;2022-09-09T03:32:18;52.82;39.92;68.86;;
37163;Laerm;23057;48.554;14.454;2022-09-09T03:34:52;58.39;42.76;72.95;;
37163;Laerm;23057;48.554;14.454;2022-09-09T03:37:23;45.97;40.13;54.76;;
37163;Laerm;23057;48.554;14.454;2022-09-09T03:39:54;55.01;40.89;66.64;;
37163;Laerm;23057;48.554;14.454;2022-09-09T03:42:25;52.58;40.23;64.62;;
37163;Laerm;23057;48.554;14.454;2022-09-09T03:44:56;56.07;40.62;68.79;;
37163;Laerm;23057;48.554;14.454;2022-09-09T03:47:28;56.76;44.11;67.46;;
37163;Laerm;23057;48.554;14.454;2022-09-09T03:49:59;54.99;42.19;66.03;;
37163;Laerm;23057;48.554;14.454;2022-09-09T03:52:30;55.34;41.53;70.92;;
37163;Laerm;23057;48.554;14.454;2022-09-09T03:55:01;56.50;41.81;68.37;;
37163;Laerm;23057;48.554;14.454;2022-09-09T03:57:33;52.47;38.95;71.52;;
37163;Laerm;23057;48.554;14.454;2022-09-09T04:00:08;52.27;40.13;66.59;;
37163;Laerm;23057;48.554;14.454;2022-09-09T04:02:39;55.20;39.08;75.30;;
37163;Laerm;23057;48.554;14.454;2022-09-09T04:05:10;55.23;41.22;69.06;;
37163;Laerm;23057;48.554;14.454;2022-09-09T04:07:40;53.97;41.14;65.94;;
37163;Laerm;23057;48.554;14.454;2022-09-09T04:10:11;56.94;42.71;70.83;;
37163;Laerm;23057;48.554;14.454;2022-09-09T04:12:42;53.46;41.82;68.11;;
37163;Laerm;23057;48.554;14.454;2022-09-09T04:15:13;55.32;42.98;68.13;;
37163;Laerm;23057;48.554;14.454;2022-09-09T04:17:43;57.18;44.94;66.86;;
37163;Laerm;23057;48.554;14.454;2022-09-09T04:20:14;56.34;42.16;73.72;;
37163;Laerm;23057;48.554;14.454;2022-09-09T04:22:45;57.48;41.89;71.96;;
37163;Laerm;23057;48.554;14.454;2022-09-09T04:25:16;52.45;41.61;67.95;;
37163;Laerm;23057;48.554;14.454;2022-09-09T04:27:46;53.54;40.33;68.20;;
37163;Laerm;23057;48.554;14.454;2022-09-09T04:30:18;59.05;44.47;71.51;;
37163;Laerm;23057;48.554;14.454;2022-09-09T04:32:49;54.67;42.71;67.01;;
37163;Laerm;23057;48.554;14.454;2022-09-09T04:35:19;56.95;44.27;69.12;;
37163;Laerm;23057;48.554;14.454;2022-09-09T04:37:50;54.06;43.86;65.14;;
37163;Laerm;23057;48.554;14.454;2022-09-09T04:40:21;55.61;43.19;66.12;;
37163;Laerm;23057;48.554;14.454;2022-09-09T04:42:52;59.50;43.68;70.61;;
37163;Laerm;23057;48.554;14.454;2022-09-09T04:45:23;57.83;44.23;68.11;;
37163;Laerm;23057;48.554;14.454;2022-09-09T04:47:54;56.61;45.42;68.81;;
37163;Laerm;23057;48.554;14.454;2022-09-09T04:50:25;57.85;45.75;67.50;;
37163;Laerm;23057;48.554;14.454;2022-09-09T04:52:56;57.76;44.19;68.59;;
37163;Laerm;23057;48.554;14.454;2022-09-09T04:55:30;57.20;44.27;68.18;;
37163;Laerm;23057;48.554;14.454;2022-09-09T04:58:07;53.93;43.09;65.26;;
37163;Laerm;23057;48.554;14.454;2022-09-09T05:00:37;55.90;42.53;68.90;;
37163;Laerm;23057;48.554;14.454;2022-09-09T05:03:08;57.73;42.29;71.80;;
37163;Laerm;23057;48.554;14.454;2022-09-09T05:05:39;50.49;41.30;65.85;;
37163;Laerm;23057;48.554;14.454;2022-09-09T05:08:10;56.12;41.82;73.88;;
37163;Laerm;23057;48.554;14.454;2022-09-09T05:10:41;54.79;41.22;65.39;;
37163;Laerm;23057;48.554;14.454;2022-09-09T05:13:12;55.58;44.23;73.27;;
37163;Laerm;23057;48.554;14.454;2022-09-09T05:15:52;52.94;42.03;65.37;;
37163;Laerm;23057;48.554;14.454;2022-09-09T05:18:23;52.91;42.35;67.40;;
37163;Laerm;23057;48.554;14.454;2022-09-09T05:20:59;52.59;43.04;64.31;;
37163;Laerm;23057;48.554;14.454;2022-09-09T05:23:30;54.49;43.54;67.89;;
37163;Laerm;23057;48.554;14.454;2022-09-09T05:26:02;55.05;42.41;67.21;;
37163;Laerm;23057;48.554;14.454;2022-09-09T05:28:36;55.50;42.22;70.10;;
37163;Laerm;23057;48.554;14.454;2022-09-09T05:31:09;55.70;43.34;71.09;;
37163;Laerm;23057;48.554;14.454;2022-09-09T05:33:45;52.03;42.22;66.64;;
37163;Laerm;23057;48.554;14.454;2022-09-09T05:36:20;59.36;44.03;70.93;;
37163;Laerm;23057;48.554;14.454;2022-09-09T05:38:51;56.72;44.31;71.50;;
37163;Laerm;23057;48.554;14.454;2022-09-09T05:41:24;53.42;42.98;65.86;;
37163;Laerm;23057;48.554;14.454;2022-09-09T05:43:55;60.51;43.14;76.76;;
37163;Laerm;23057;48.554;14.454;2022-09-09T05:46:25;57.50;44.51;70.59;;
37163;Laerm;23057;48.554;14.454;2022-09-09T05:48:56;59.22;44.80;73.63;;
37163;Laerm;23057;48.554;14.454;2022-09-09T05:51:29;56.05;42.41;68.95;;
37163;Laerm;23057;48.554;14.454;2022-09-09T05:54:03;60.91;46.66;76.02;;
37163;Laerm;23057;48.554;14.454;2022-09-09T05:56:34;56.77;45.57;66.80;;
37163;Laerm;23057;48.554;14.454;2022-09-09T05:59:04;58.92;42.93;72.70;;
37163;Laerm;23057;48.554;14.454;2022-09-09T06:01:37;56.30;43.09;67.33;;
37163;Laerm;23057;48.554;14.454;2022-09-09T06:04:10;51.71;42.76;63.18;;
37163;Laerm;23057;48.554;14.454;2022-09-09T06:06:41;56.87;42.98;69.79;;
37163;Laerm;23057;48.554;14.454;2022-09-09T06:09:12;54.26;43.09;64.93;;
37163;Laerm;23057;48.554;14.454;2022-09-09T06:11:44;55.08;44.03;66.16;;
37163;Laerm;23057;48.554;14.454;2022-09-09T06:14:16;57.75;43.44;76.16;;
37163;Laerm;23057;48.554;14.454;2022-09-09T06:16:48;56.95;43.19;71.30;;
37163;Laerm;23057;48.554;14.454;2022-09-09T06:19:19;52.02;42.82;63.47;;
37163;Laerm;23057;48.554;14.454;2022-09-09T06:21:51;57.74;42.65;69.53;;
37163;Laerm;23057;48.554;14.454;2022-09-09T06:24:21;62.29;43.81;78.07;;
37163;Laerm;23057;48.554;14.454;2022-09-09T06:26:52;59.28;43.29;74.64;;
37163;Laerm;23057;48.554;14.454;2022-09-09T06:29:24;53.30;40.89;65.25;;
37163;Laerm;23057;48.554;14.454;2022-09-09T06:31:55;52.72;41.30;69.06;;
37163;Laerm;23057;48.554;14.454;2022-09-09T06:34:26;51.22;40.80;66.29;;
37163;Laerm;23057;48.554;14.454;2022-09-09T06:36:57;58.84;42.35;71.95;;
37163;Laerm;23057;48.554;14.454;2022-09-09T06:39:28;51.48;41.14;66.31;;
37163;Laerm;23057;48.554;14.454;2022-09-09T06:41:59;58.85;42.03;74.22;;
37163;Laerm;23057;48.554;14.454;2022-09-09T06:44:30;56.00;41.38;68.88;;
37163;Laerm;23057;48.554;14.454;2022-09-09T06:47:02;56.94;39.34;69.42;;
37163;Laerm;23057;48.554;14.454;2022-09-09T06:49:33;53.80;39.92;66.22;;
37163;Laerm;23057;48.554;14.454;2022-09-09T06:52:05;59.35;40.71;77.82;;
37163;Laerm;23057;48.554;14.454;2022-09-09T06:54:36;55.24;40.13;69.51;;
37163;Laerm;23057;48.554;14.454;2022-09-09T06:57:07;56.20;41.68;69.89;;
37163;Laerm;23057;48.554;14.454;2022-09-09T06:59:38;54.84;41.61;70.17;;
37163;Laerm;23057;48.554;14.454;2022-09-09T07:02:09;52.30;40.80;63.72;;
37163;Laerm;23057;48.554;14.454;2022-09-09T07:04:40;50.79;41.22;65.57;;
37163;Laerm;23057;48.554;14.454;2022-09-09T07:07:11;55.89;41.14;70.71;;
37163;Laerm;23057;48.554;14.454;2022-09-09T07:09:44;56.89;41.75;68.51;;
37163;Laerm;23057;48.554;14.454;2022-09-09T07:12:16;57.79;41.89;71.46;;
37163;Laerm;23057;48.554;14.454;2022-09-09T07:14:47;55.06;42.16;68.08;;
37163;Laerm;23057;48.554;14.454;2022-09-09T07:17:17;54.54;39.92;66.85;;
37163;Laerm;23057;48.554;14.454;2022-09-09T07:19:48;54.98;41.22;66.79;;
37163;Laerm;23057;48.554;14.454;2022-09-09T07:22:19;53.17;40.62;67.28;;
37163;Laerm;23057;48.554;14.454;2022-09-09T07:24:50;55.65;41.61;66.07;;
37163;Laerm;23057;48.554;14.454;2022-09-09T07:27:21;55.43;42.19;67.88;;
37163;Laerm;23057;48.554;14.454;2022-09-09T07:29:52;53.41;41.55;65.92;;
37163;Laerm;23057;48.554;14.454;2022-09-09T07:32:25;53.17;40.43;67.78;;
37163;Laerm;23057;48.554;14.454;2022-09-09T07:35:00;54.90;41.22;68.82;;
37163;Laerm;23057;48.554;14.454;2022-09-09T07:37:31;53.95;38.52;67.64;;
37163;Laerm;23057;48.554;14.454;2022-09-09T07:40:02;51.39;39.92;64.48;;
37163;Laerm;23057;48.554;14.454;2022-09-09T07:42:35;50.24;39.58;62.50;;
37163;Laerm;23057;48.554;14.454;2022-09-09T07:45:06;53.07;40.23;66.81;;
37163;Laerm;23057;48.554;14.454;2022-09-09T07:47:37;51.66;40.62;67.79;;
37163;Laerm;23057;48.554;14.454;2022-09-09T07:50:10;54.20;40.98;66.40;;
37163;Laerm;23057;48.554;14.454;2022-09-09T07:52:40;53.97;42.24;67.59;;
37163;Laerm;23057;48.554;14.454;2022-09-09T07:55:11;53.18;41.14;67.39;;
37163;Laerm;23057;48.554;14.454;2022-09-09T07:57:42;58.37;40.98;72.73;;
37163;Laerm;23057;48.554;14.454;2022-09-09T08:00:14;59.55;42.41;75.18;;
37163;Laerm;23057;48.554;14.454;2022-09-09T08:02:45;56.11;41.96;72.75;;
37163;Laerm;23057;48.554;14.454;2022-09-09T08:05:17;50.92;40.33;67.72;;
37163;Laerm;23057;48.554;14.454;2022-09-09T08:07:48;53.83;40.53;67.23;;
37163;Laerm;23057;48.554;14.454;2022-09-09T08:10:19;57.21;41.46;71.77;;
37163;Laerm;23057;48.554;14.454;2022-09-09T08:12:50;53.58;40.53;66.22;;
37163;Laerm;23057;48.554;14.454;2022-09-09T08:15:20;51.50;40.98;63.92;;
37163;Laerm;23057;48.554;14.454;2022-09-09T08:17:51;57.76;41.06;72.99;;
37163;Laerm;23057;48.554;14.454;2022-09-09T08:20:22;54.25;40.62;66.22;;
37163;Laerm;23057;48.554;14.454;2022-09-09T08:22:55;54.37;40.13;67.59;;
37163;Laerm;23057;48.554;14.454;2022-09-09T08:25:26;56.44;40.33;71.65;;
37163;Laerm;23057;48.554;14.454;2022-09-09T08:27:57;57.30;42.00;72.19;;
37163;Laerm;23057;48.554;14.454;2022-09-09T08:30:27;52.96;40.33;65.37;;
37163;Laerm;23057;48.554;14.454;2022-09-09T08:32:58;51.68;40.23;63.72;;
37163;Laerm;23057;48.554;14.454;2022-09-09T08:35:30;57.60;40.71;71.48;;
37163;Laerm;23057;48.554;14.454;2022-09-09T08:38:03;54.42;41.75;68.29;;
37163;Laerm;23057;48.554;14.454;2022-09-09T08:40:43;57.93;41.61;74.11;;
37163;Laerm;23057;48.554;14.454;2022-09-09T08:43:22;51.63;40.43;69.15;;
37163;Laerm;23057;48.554;14.454;2022-09-09T08:46:11;56.14;40.23;71.58;;
37163;Laerm;23057;48.554;14.454;2022-09-09T08:51:31;55.50;40.33;69.78;;
37163;Laerm;23057;48.554;14.454;2022-09-09T08:54:04;56.40;41.22;69.67;;
37163;Laerm;23057;48.554;14.454;2022-09-09T08:56:35;54.51;42.53;68.01;;
37163;Laerm;23057;48.554;14.454;2022-09-09T08:59:13;59.75;43.49;73.82;;
37163;Laerm;23057;48.554;14.454;2022-09-09T09:02:15;56.38;41.68;69.16;;
37163;Laerm;23057;48.554;14.454;2022-09-09T09:10:37;56.05;40.71;69.08;;
37163;Laerm;23057;48.554;14.454;2022-09-09T09:13:28;55.06;39.58;68.95;;
37163;Laerm;23057;48.554;14.454;2022-09-09T09:16:26;54.03;41.22;66.52;;
37163;Laerm;23057;48.554;14.454;2022-09-09T09:19:00;58.58;41.06;71.10;;
37163;Laerm;23057;48.554;14.454;2022-09-09T09:21:42;61.04;40.53;79.38;;
37163;Laerm;23057;48.554;14.454;2022-09-09T09:24:20;58.12;41.68;74.29;;
37163;Laerm;23057;48.554;14.454;2022-09-09T09:26:54;59.67;42.35;72.33;;
37163;Laerm;23057;48.554;14.454;2022-09-09T09:29:26;55.78;41.46;73.19;;
37163;Laerm;23057;48.554;14.454;2022-09-09T09:32:02;55.66;41.30;68.27;;
37163;Laerm;23057;48.554;14.454;2022-09-09T09:34:33;52.65;41.14;65.30;;
37163;Laerm;23057;48.554;14.454;2022-09-09T09:37:41;52.50;40.71;65.03;;
37163;Laerm;23057;48.554;14.454;2022-09-09T09:40:21;53.44;41.96;66.45;;
37163;Laerm;23057;48.554;14.454;2022-09-09T09:42:56;56.68;41.82;71.30;;
37163;Laerm;23057;48.554;14.454;2022-09-09T09:45:44;53.23;40.13;69.22;;
37163;Laerm;23057;48.554;14.454;2022-09-09T09:48:18;61.65;40.98;77.67;;
37163;Laerm;23057;48.554;14.454;2022-09-09T09:50:58;53.30;39.58;67.00;;
37163;Laerm;23057;48.554;14.454;2022-09-09T09:53:34;52.90;39.70;66.31;;
37163;Laerm;23057;48.554;14.454;2022-09-09T09:56:14;51.88;39.92;70.94;;
37163;Laerm;23057;48.554;14.454;2022-09-09T10:01:29;51.44;40.13;73.42;;
37163;Laerm;23057;48.554;14.454;2022-09-09T10:04:18;54.58;40.89;70.17;;
37163;Laerm;23057;48.554;14.454;2022-09-09T10:06:51;60.65;42.03;73.51;;
37163;Laerm;23057;48.554;14.454;2022-09-09T10:09:26;55.20;41.46;67.89;;
37163;Laerm;23057;48.554;14.454;2022-09-09T10:18:34;56.76;42.82;69.28;;
37163;Laerm;23057;48.554;14.454;2022-09-09T10:27:33;55.40;43.58;68.03;;
37163;Laerm;23057;48.554;14.454;2022-09-09T10:30:19;60.08;48.31;77.15;;
37163;Laerm;23057;48.554;14.454;2022-09-09T10:33:13;60.29;51.37;72.52;;
37163;Laerm;23057;48.554;14.454;2022-09-09T10:38:46;62.15;51.45;76.75;;
37163;Laerm;23057;48.554;14.454;2022-09-09T10:42:12;59.99;48.63;73.66;;
37163;Laerm;23057;48.554;14.454;2022-09-09T10:45:20;59.75;47.93;73.53;;
37163;Laerm;23057;48.554;14.454;2022-09-09T10:48:28;60.08;44.69;70.99;;
37163;Laerm;23057;48.554;14.454;2022-09-09T10:51:31;60.46;43.63;74.38;;
37163;Laerm;23057;48.554;14.454;2022-09-09T10:55:06;62.72;45.66;77.45;;
37163;Laerm;23057;48.554;14.454;2022-09-09T10:57:45;61.57;44.27;79.28;;
37163;Laerm;23057;48.554;14.454;2022-09-09T11:00:24;57.63;42.09;70.71;;
37163;Laerm;23057;48.554;14.454;2022-09-09T11:03:05;59.62;42.29;72.97;;
37163;Laerm;23057;48.554;14.454;2022-09-09T11:05:49;54.85;40.89;69.28;;
37163;Laerm;23057;48.554;14.454;2022-09-09T11:08:30;56.69;40.98;69.22;;
37163;Laerm;23057;48.554;14.454;2022-09-09T11:11:16;59.23;40.80;73.72;;
37163;Laerm;23057;48.554;14.454;2022-09-09T11:16:30;57.17;42.09;70.36;;
37163;Laerm;23057;48.554;14.454;2022-09-09T11:19:20;57.65;42.41;68.63;;
37163;Laerm;23057;48.554;14.454;2022-09-09T11:21:57;58.94;41.96;72.01;;
37163;Laerm;23057;48.554;14.454;2022-09-09T11:24:39;56.91;41.75;72.13;;
37163;Laerm;23057;48.554;14.454;2022-09-09T11:36:54;57.57;40.43;70.52;;
37163;Laerm;23057;48.554;14.454;2022-09-09T11:44:44;58.37;42.29;71.32;;
37163;Laerm;23057;48.554;14.454;2022-09-09T11:47:28;55.14;41.38;69.59;;
37163;Laerm;23057;48.554;14.454;2022-09-09T11:53:23;55.30;41.30;68.03;;
37163;Laerm;23057;48.554;14.454;2022-09-09T11:56:12;59.46;43.58;71.34;;
37163;Laerm;23057;48.554;14.454;2022-09-09T12:01:42;57.79;39.21;69.66;;
37163;Laerm;23057;48.554;14.454;2022-09-09T12:04:54;56.56;40.53;68.08;;
37163;Laerm;23057;48.554;14.454;2022-09-09T12:07:52;56.49;41.22;70.50;;
37163;Laerm;23057;48.554;14.454;2022-09-09T12:10:33;58.93;42.29;70.00;;
37163;Laerm;23057;48.554;14.454;2022-09-09T12:13:23;55.08;41.46;65.56;;
37163;Laerm;23057;48.554;14.454;2022-09-09T12:15:58;55.71;41.82;65.91;;
37163;Laerm;23057;48.554;14.454;2022-09-09T12:18:35;54.91;40.80;68.97;;
37163;Laerm;23057;48.554;14.454;2022-09-09T12:24:10;58.25;40.53;71.28;;
37163;Laerm;23057;48.554;14.454;2022-09-09T12:29:49;55.99;41.61;67.52;;
37163;Laerm;23057;48.554;14.454;2022-09-09T12:32:26;54.37;41.14;70.13;;
37163;Laerm;23057;48.554;14.454;2022-09-09T12:35:22;57.47;41.53;70.16;;
37163;Laerm;23057;48.554;14.454;2022-09-09T12:38:00;56.61;42.09;70.80;;
37163;Laerm;23057;48.554;14.454;2022-09-09T12:40:34;55.57;41.53;67.35;;
37163;Laerm;23057;48.554;14.454;2022-09-09T12:43:21;54.48;40.03;67.38;;
37163;Laerm;23057;48.554;14.454;2022-09-09T12:46:02;54.31;40.98;66.85;;
37163;Laerm;23057;48.554;14.454;2022-09-09T12:48:39;50.49;40.03;65.41;;
37163;Laerm;23057;48.554;14.454;2022-09-09T12:51:24;56.09;41.22;70.42;;
37163;Laerm;23057;48.554;14.454;2022-09-09T12:53:59;55.05;39.70;69.22;;
37163;Laerm;23057;48.554;14.454;2022-09-09T12:56:32;53.43;40.23;66.11;;
37163;Laerm;23057;48.554;14.454;2022-09-09T12:59:03;50.07;40.71;60.70;;
37163;Laerm;23057;48.554;14.454;2022-09-09T13:01:35;55.87;40.53;66.43;;
37163;Laerm;23057;48.554;14.454;2022-09-09T13:04:20;54.72;41.61;65.91;;
37163;Laerm;23057;48.554;14.454;2022-09-09T13:06:52;54.58;41.75;67.34;;
37163;Laerm;23057;48.554;14.454;2022-09-09T13:09:23;52.84;40.33;67.14;;
37163;Laerm;23057;48.554;14.454;2022-09-09T13:11:56;52.71;41.14;65.88;;
37163;Laerm;23057;48.554;14.454;2022-09-09T13:14:34;54.61;41.48;66.62;;
37163;Laerm;23057;48.554;14.454;2022-09-09T13:17:21;57.38;40.98;74.99;;
37163;Laerm;23057;48.554;14.454;2022-09-09T13:20:01;54.96;41.22;65.22;;
37163;Laerm;23057;48.554;14.454;2022-09-09T13:22:38;56.42;41.06;68.42;;
37163;Laerm;23057;48.554;14.454;2022-09-09T13:30:36;56.72;40.71;67.69;;
37163;Laerm;23057;48.554;14.454;2022-09-09T13:35:56;55.71;39.34;67.65;;
37163;Laerm;23057;48.554;14.454;2022-09-09T13:38:32;52.98;39.58;64.95;;
37163;Laerm;23057;48.554;14.454;2022-09-09T13:41:06;51.41;39.08;66.31;;
37163;Laerm;23057;48.554;14.454;2022-09-09T13:43:44;59.77;40.89;74.41;;
37163;Laerm;23057;48.554;14.454;2022-09-09T13:46:32;54.07;39.92;67.42;;
37163;Laerm;23057;48.554;14.454;2022-09-09T13:51:43;51.87;38.67;65.86;;
37163;Laerm;23057;48.554;14.454;2022-09-09T13:54:19;53.59;39.34;65.91;;
37163;Laerm;23057;48.554;14.454;2022-09-09T13:56:50;57.39;40.89;69.99;;
37163;Laerm;23057;48.554;14.454;2022-09-09T13:59:21;55.20;40.98;68.66;;
37163;Laerm;23057;48.554;14.454;2022-09-09T14:01:52;47.82;40.33;64.19;;
37163;Laerm;23057;48.554;14.454;2022-09-09T14:04:23;54.78;39.21;86.12;;
37163;Laerm;23057;48.554;14.454;2022-09-09T14:06:54;55.98;40.33;70.84;;
37163;Laerm;23057;48.554;14.454;2022-09-09T14:09:26;56.24;40.89;73.11;;
37163;Laerm;23057;48.554;14.454;2022-09-09T14:11:56;56.27;40.13;74.77;;
37163;Laerm;23057;48.554;14.454;2022-09-09T14:14:28;58.54;41.06;83.36;;
37163;Laerm;23057;48.554;14.454;2022-09-09T14:16:58;55.95;40.53;69.63;;
37163;Laerm;23057;48.554;14.454;2022-09-09T14:19:30;53.64;42.98;67.82;;
37163;Laerm;23057;48.554;14.454;2022-09-09T14:22:01;57.71;42.09;84.36;;
37163;Laerm;23057;48.554;14.454;2022-09-09T14:24:32;59.13;43.72;75.54;;
37163;Laerm;23057;48.554;14.454;2022-09-09T14:27:03;50.45;42.76;63.89;;
37163;Laerm;23057;48.554;14.454;2022-09-09T14:29:34;52.73;39.08;65.96;;
37163;Laerm;23057;48.554;14.454;2022-09-09T14:32:05;51.89;38.52;66.47;;
37163;Laerm;23057;48.554;14.454;2022-09-09T14:34:35;55.74;39.34;70.83;;
37163;Laerm;23057;48.554;14.454;2022-09-09T14:37:06;56.11;36.91;73.37;;
37163;Laerm;23057;48.554;14.454;2022-09-09T14:39:37;55.89;40.43;71.04;;
37163;Laerm;23057;48.554;14.454;2022-09-09T14:42:08;57.02;40.71;70.06;;
37163;Laerm;23057;48.554;14.454;2022-09-09T14:44:39;52.67;39.81;64.88;;
37163;Laerm;23057;48.554;14.454;2022-09-09T14:47:11;54.93;40.23;67.09;;
37163;Laerm;23057;48.554;14.454;2022-09-09T14:49:41;56.79;40.89;70.51;;
37163;Laerm;23057;48.554;14.454;2022-09-09T14:52:12;55.17;39.70;75.14;;
37163;Laerm;23057;48.554;14.454;2022-09-09T14:54:43;59.40;42.29;78.75;;
37163;Laerm;23057;48.554;14.454;2022-09-09T14:57:14;56.09;38.95;71.26;;
37163;Laerm;23057;48.554;14.454;2022-09-09T14:59:45;55.33;40.23;68.53;;
37163;Laerm;23057;48.554;14.454;2022-09-09T15:02:16;51.63;39.34;65.46;;
37163;Laerm;23057;48.554;14.454;2022-09-09T15:04:47;53.56;40.71;64.43;;
37163;Laerm;23057;48.554;14.454;2022-09-09T15:07:17;56.24;40.79;73.01;;
37163;Laerm;23057;48.554;14.454;2022-09-09T15:09:49;57.37;40.71;76.06;;
37163;Laerm;23057;48.554;14.454;2022-09-09T15:12:20;53.29;40.43;66.45;;
37163;Laerm;23057;48.554;14.454;2022-09-09T15:14:51;54.21;40.43;82.02;;
37163;Laerm;23057;48.554;14.454;2022-09-09T15:17:24;66.21;41.46;90.54;;
37163;Laerm;23057;48.554;14.454;2022-09-09T15:19:56;56.42;40.98;72.35;;
37163;Laerm;23057;48.554;14.454;2022-09-09T15:22:27;51.56;41.38;66.53;;
37163;Laerm;23057;48.554;14.454;2022-09-09T15:24:58;50.39;39.81;65.64;;
37163;Laerm;23057;48.554;14.454;2022-09-09T15:27:29;56.26;40.23;67.54;;
37163;Laerm;23057;48.554;14.454;2022-09-09T15:30:00;65.40;42.65;88.17;;
37163;Laerm;23057;48.554;14.454;2022-09-09T15:32:31;54.10;40.89;65.42;;
37163;Laerm;23057;48.554;14.454;2022-09-09T15:35:03;53.45;40.98;73.46;;
37163;Laerm;23057;48.554;14.454;2022-09-09T15:37:34;56.74;40.62;70.65;;
37163;Laerm;23057;48.554;14.454;2022-09-09T15:40:05;55.71;42.93;70.93;;
37163;Laerm;23057;48.554;14.454;2022-09-09T15:42:37;52.87;40.13;70.40;;
37163;Laerm;23057;48.554;14.454;2022-09-09T15:45:08;49.65;38.81;70.88;;
37163;Laerm;23057;48.554;14.454;2022-09-09T15:47:39;53.52;38.81;66.66;;
37163;Laerm;23057;48.554;14.454;2022-09-09T15:50:10;53.75;40.03;65.66;;
37163;Laerm;23057;48.554;14.454;2022-09-09T15:52:40;54.11;39.58;70.94;;
37163;Laerm;23057;48.554;14.454;2022-09-09T15:55:11;56.21;40.62;65.15;;
37163;Laerm;23057;48.554;14.454;2022-09-09T15:57:42;53.55;39.81;69.86;;